Terminal Aerodrome Forecast
Issued by NWS Birmingham, AL

Home | Current Version | Previous Version | Text Only | Print | Product List | Glossary On
Versions: 1 2 3 4 5 6 7 8 9 10 11 12
000
FTUS44 KBMX 271400 AAA
TAFBHM
TAF AMD
KBHM 271420Z 2714/2812 14004KT P6SM -RA OVC040
     FM271700 14006KT P6SM -RA BKN025 OVC040
     FM272100 15006KT 4SM -RA BR BKN015 OVC025
     FM280000 14007KT 2SM RA BR BKN007 OVC015=

USA.gov is the U.S. government's official web portal to all federal, state and local government web resources and services.